首页
METAR-TAF:

METAR-TAF

机场 :

洛迦诺, 瑞士

纬度: 46-09-55N, 经度: 8-52-40E, 海拔: 198米

当前天气观测

该预报发布于25分钟前的08:20 UTC
风速2节,风向多变
温度 -3°C
湿度 93%
气压 1036 hPa
能见度10公里或以上
1500米以下无云,无积雨云

METAR: LSZL 220820Z VRB02KT CAVOK M03/M04 Q1036 RMK BLU

时间: 09:45 (08:45 UTC)

预报

该预报发布于3小时和20分钟前的05:25 UTC
预报有效从22日的 06点(UTC)到 22日的 15点(UTC)
风速3节,风向多变
能见度10公里或以上
1500米以下无云,无积雨云
几率 40% :
短暂存在
从 22日的 06点(UTC)到 22日的 09点(UTC)
能見度: 6000

TAF: LSZL 220525Z 2206/2215 VRB03KT CAVOK PROB40 TEMPO 2206/2209 6000 NSC

超过4000个机场的气象观测和天气预报(METAR&TAF报告)。

可查询的气象台以黄色和红色小点在地图上表示。

将鼠标移到小点上方,可查看气象台名称。

然后点击查看天气观测和预报。

如需切换地图:点击带黑十字的绿色按钮放大地图;点击带横线的绿色按钮缩小地图;或者点击绿色箭头查看邻近地区的地图。


METAR-TAF: